Time;durP1;ratioP1;P1;durP2;ratioP2;P2;SDS_P1;SDS_P2;PMS_P1;PMS_P2;Temp;Humidity;BMP_temperature;BMP_pressure;BME280_temperature;BME280_humidity;BME280_pressure;Samples;Min_cycle;Max_cycle;Signal;HPM_P1;HPM_P2
2022/09/14 00:00:24;;;;;;;7.47;4.25;;;;;;;-145.70;100.00;63560.63;5061242;28;20538;-59
2022/09/14 00:02:49;;;;;;;10.20;4.65;;;;;;;-145.70;100.00;63560.63;5090782;27;20028;-59
2022/09/14 00:05:15;;;;;;;9.23;4.18;;;;;;;-145.70;100.00;63560.63;5077319;28;20024;-59
2022/09/14 00:07:40;;;;;;;8.77;4.00;;;;;;;-145.70;100.00;63560.63;5073834;28;20028;-60
2022/09/14 00:10:06;;;;;;;6.20;3.47;;;;;;;-145.70;100.00;63560.63;5062474;28;20494;-60
2022/09/14 00:12:31;;;;;;;6.82;4.10;;;;;;;-145.70;100.00;63560.63;5071664;28;20584;-60
2022/09/14 00:14:57;;;;;;;6.55;3.60;;;;;;;-145.70;100.00;63560.63;5075213;28;20472;-59
2022/09/14 00:17:22;;;;;;;8.77;4.20;;;;;;;-145.70;100.00;63560.63;5062035;28;20032;-58
2022/09/14 00:19:48;;;;;;;7.15;3.60;;;;;;;-145.70;100.00;63560.63;5062401;28;20564;-60
2022/09/14 00:22:13;;;;;;;6.47;3.72;;;;;;;-145.70;100.00;63560.63;5056980;28;20037;-59
2022/09/14 00:24:39;;;;;;;6.15;3.90;;;;;;;-145.70;100.00;63560.63;5082963;28;20810;-60
2022/09/14 00:27:04;;;;;;;8.50;4.20;;;;;;;-145.70;100.00;63560.63;5073188;28;20131;-59
2022/09/14 00:29:30;;;;;;;6.60;4.03;;;;;;;-145.70;100.00;63560.63;5056600;28;20566;-59
2022/09/14 00:31:56;;;;;;;7.50;3.40;;;;;;;-145.70;100.00;63560.63;5052382;28;20062;-60
2022/09/14 00:34:21;;;;;;;8.07;3.85;;;;;;;-145.70;100.00;63560.63;5075398;28;20028;-59
2022/09/14 00:36:48;;;;;;;7.03;3.35;;;;;;;-145.70;100.00;63560.63;5060389;28;20775;-60
2022/09/14 00:39:16;;;;;;;6.65;3.25;;;;;;;-145.70;100.00;63560.63;5061519;28;20081;-59
2022/09/14 00:41:44;;;;;;;7.90;3.30;;;;;;;-145.70;100.00;63560.63;5073894;28;20131;-60
2022/09/14 00:44:09;;;;;;;5.85;3.40;;;;;;;-145.70;100.00;63560.63;5066168;28;20028;-60
2022/09/14 00:46:37;;;;;;;8.57;3.70;;;;;;;-145.70;100.00;63560.63;5075273;28;20032;-60
2022/09/14 00:49:05;;;;;;;8.32;3.30;;;;;;;-145.70;100.00;63560.63;5060504;28;20023;-61
2022/09/14 00:51:32;;;;;;;6.85;3.42;;;;;;;-145.70;100.00;63560.63;5098893;27;20031;-59
2022/09/14 00:53:59;;;;;;;6.95;3.40;;;;;;;-145.70;100.00;63560.63;5081476;28;20427;-59
2022/09/14 00:56:25;;;;;;;11.45;3.42;;;;;;;-145.70;100.00;63560.63;5075963;28;20028;-60
2022/09/14 00:58:50;;;;;;;7.60;3.20;;;;;;;-145.70;100.00;63560.63;5072944;28;20032;-59
2022/09/14 01:01:16;;;;;;;6.07;3.00;;;;;;;-145.70;100.00;63560.63;5072677;28;20364;-59
2022/09/14 01:03:41;;;;;;;8.23;3.55;;;;;;;-145.70;100.00;63560.63;5086914;28;20024;-60
2022/09/14 01:06:35;;;;;;;6.38;3.00;;;;;;;-145.70;100.00;63560.63;5073168;28;20032;-60
2022/09/14 01:09:42;;;;;;;6.78;2.90;;;;;;;-145.70;100.00;63560.63;5060092;28;20027;-60
2022/09/14 01:12:17;;;;;;;7.20;3.13;;;;;;;-145.70;100.00;63560.63;5069694;28;20048;-59
2022/09/14 01:15:07;;;;;;;6.55;3.13;;;;;;;-145.70;100.00;63560.63;5084642;28;20725;-59
2022/09/14 01:17:56;;;;;;;5.72;3.30;;;;;;;-145.70;100.00;63560.63;5076917;28;20617;-60
2022/09/14 01:20:30;;;;;;;6.05;3.10;;;;;;;-145.70;100.00;63560.63;5077060;28;20080;-59
2022/09/14 01:23:08;;;;;;;7.82;3.20;;;;;;;-145.70;100.00;63560.63;5106232;27;20137;-60
2022/09/14 01:26:11;;;;;;;5.45;3.22;;;;;;;-145.70;100.00;63560.63;5083433;28;20032;-62
2022/09/14 01:28:45;;;;;;;7.00;3.13;;;;;;;-145.70;100.00;63560.63;5070360;28;20032;-61
2022/09/14 01:31:17;;;;;;;6.97;3.42;;;;;;;-145.70;100.00;63560.63;5071726;28;20025;-59
2022/09/14 01:33:50;;;;;;;6.28;3.30;;;;;;;-145.70;100.00;63560.63;5080325;28;20110;-59
2022/09/14 01:36:16;;;;;;;6.38;3.00;;;;;;;-145.70;100.00;63560.63;5063272;28;20506;-59
2022/09/14 01:38:47;;;;;;;5.85;3.17;;;;;;;-145.70;100.00;63560.63;5074319;28;20332;-58
2022/09/14 01:41:16;;;;;;;6.47;2.97;;;;;;;-145.70;100.00;63560.63;5065671;28;20082;-60
2022/09/14 01:43:45;;;;;;;6.87;3.10;;;;;;;-145.70;100.00;63560.63;5076814;28;20036;-60
2022/09/14 01:46:17;;;;;;;6.75;3.30;;;;;;;-145.70;100.00;63560.63;5069527;28;20040;-61
2022/09/14 01:49:17;;;;;;;6.53;3.03;;;;;;;-145.70;100.00;63560.63;5058108;28;20420;-60
2022/09/14 01:51:52;;;;;;;7.05;3.08;;;;;;;-145.70;100.00;63560.63;5073797;28;20036;-60
2022/09/14 01:54:17;;;;;;;6.63;3.00;;;;;;;-145.70;100.00;63560.63;5076036;28;20027;-60
2022/09/14 01:56:51;;;;;;;7.47;3.20;;;;;;;-145.70;100.00;63560.63;5078992;28;20286;-60
2022/09/14 01:59:29;;;;;;;5.63;3.45;;;;;;;-145.70;100.00;63560.63;5052941;28;21056;-60
2022/09/14 02:01:55;;;;;;;8.55;3.25;;;;;;;-145.70;100.00;63560.63;5069772;28;20036;-59
2022/09/14 02:04:40;;;;;;;8.23;3.22;;;;;;;-145.70;100.00;63560.63;5080409;28;20058;-60
2022/09/14 02:07:05;;;;;;;7.85;3.15;;;;;;;-145.70;100.00;63560.63;5058942;28;20040;-61
2022/09/14 02:09:31;;;;;;;4.82;2.85;;;;;;;-145.70;100.00;63560.63;5059266;28;20699;-60
2022/09/14 02:11:59;;;;;;;5.78;2.78;;;;;;;-145.70;100.00;63560.63;5060878;28;20530;-62
2022/09/14 02:14:25;;;;;;;7.90;3.28;;;;;;;-145.70;100.00;63560.63;5068017;28;20552;-59
2022/09/14 02:16:50;;;;;;;6.88;3.20;;;;;;;-145.70;100.00;63560.63;5056057;28;20040;-61
2022/09/14 02:19:16;;;;;;;5.32;2.90;;;;;;;-145.70;100.00;63560.63;5059983;28;20035;-60
2022/09/14 02:21:41;;;;;;;8.30;3.53;;;;;;;-145.70;100.00;63560.63;5075171;28;20042;-61
2022/09/14 02:24:07;;;;;;;6.75;2.90;;;;;;;-145.70;100.00;63560.63;5070970;28;20063;-60
2022/09/14 02:26:32;;;;;;;12.57;3.80;;;;;;;-145.70;100.00;63560.63;5075907;28;20035;-59
2022/09/14 02:28:58;;;;;;;12.15;3.42;;;;;;;-145.70;100.00;63560.63;5058602;28;20028;-60
2022/09/14 02:31:35;;;;;;;13.18;3.85;;;;;;;-145.70;100.00;63560.63;5077441;28;20558;-60
2022/09/14 02:34:16;;;;;;;8.82;3.13;;;;;;;-145.70;100.00;63560.63;5073876;28;20723;-60
2022/09/14 02:37:01;;;;;;;6.97;3.10;;;;;;;-145.70;100.00;63560.63;5066254;28;20059;-59
2022/09/14 02:39:55;;;;;;;8.32;2.90;;;;;;;-145.70;100.00;63560.63;5071934;28;20546;-60
2022/09/14 02:42:36;;;;;;;8.45;3.03;;;;;;;-145.70;100.00;63560.63;5070945;28;20089;-60
2022/09/14 02:45:10;;;;;;;7.63;2.83;;;;;;;-145.70;100.00;63560.63;5071734;28;20490;-59
2022/09/14 02:48:14;;;;;;;8.45;3.50;;;;;;;-145.70;100.00;63560.63;5078323;28;20028;-60
2022/09/14 02:50:42;;;;;;;9.05;3.17;;;;;;;-145.70;100.00;63560.63;5006172;28;20059;-60
2022/09/14 02:53:20;;;;;;;6.40;2.80;;;;;;;-145.70;100.00;63560.63;4996482;28;20709;-60
2022/09/14 02:55:50;;;;;;;6.75;3.17;;;;;;;-145.70;100.00;63560.63;5034506;28;20086;-60
2022/09/14 02:58:15;;;;;;;;;;;;;;;-145.70;100.00;63560.63;5070141;28;20055;-60
2022/09/14 03:00:45;;;;;;;5.80;2.83;;;;;;;-145.70;100.00;63560.63;5102461;27;20287;-60
2022/09/14 03:03:13;;;;;;;6.57;2.85;;;;;;;-145.70;100.00;63560.63;5100076;27;20361;-59
2022/09/14 03:05:39;;;;;;;7.30;2.80;;;;;;;-145.70;100.00;63560.63;5057350;28;20136;-59
2022/09/14 03:08:05;;;;;;;7.20;3.20;;;;;;;-145.70;100.00;63560.63;5067708;28;20119;-60
2022/09/14 03:10:31;;;;;;;5.80;2.80;;;;;;;-145.70;100.00;63560.63;5045850;28;20700;-60
2022/09/14 03:12:57;;;;;;;8.57;3.20;;;;;;;-145.70;100.00;63560.63;5079165;28;20143;-60
2022/09/14 03:15:23;;;;;;;6.60;2.97;;;;;;;-145.70;100.00;63560.63;5066592;28;20116;-60
2022/09/14 03:17:49;;;;;;;10.15;3.45;;;;;;;-145.70;100.00;63560.63;5061309;28;20028;-60
2022/09/14 03:20:16;;;;;;;8.43;3.15;;;;;;;-145.70;100.00;63560.63;5060819;28;20116;-60
2022/09/14 03:22:42;;;;;;;9.55;3.17;;;;;;;-145.70;100.00;63560.63;5083543;28;20025;-60
2022/09/14 03:25:08;;;;;;;6.30;3.53;;;;;;;-145.70;100.00;63560.63;5072797;28;20685;-60
2022/09/14 03:27:33;;;;;;;8.40;2.92;;;;;;;-145.70;100.00;63560.63;5078207;28;20036;-59
2022/09/14 03:29:58;;;;;;;7.57;3.03;;;;;;;-145.70;100.00;63560.63;5056696;28;20059;-59
2022/09/14 03:32:24;;;;;;;6.47;2.60;;;;;;;-145.70;100.00;63560.63;5078925;28;20091;-60
2022/09/14 03:34:49;;;;;;;5.95;3.40;;;;;;;-145.70;100.00;63560.63;5076891;28;20036;-60
2022/09/14 03:37:15;;;;;;;5.25;3.03;;;;;;;-145.70;100.00;63560.63;5073877;28;20024;-59
2022/09/14 03:39:40;;;;;;;6.65;3.17;;;;;;;-145.70;100.00;63560.63;5074106;28;20035;-60
2022/09/14 03:42:05;;;;;;;6.95;3.30;;;;;;;-145.70;100.00;63560.63;5078790;28;20031;-62
2022/09/14 03:44:31;;;;;;;6.55;3.22;;;;;;;-145.70;100.00;63560.63;5076083;28;20074;-60
2022/09/14 03:46:57;;;;;;;7.97;3.47;;;;;;;-145.70;100.00;63560.63;5081448;28;20552;-59
2022/09/14 03:49:22;;;;;;;9.00;4.50;;;;;;;-145.70;100.00;63560.63;5075957;28;20062;-59
2022/09/14 03:51:48;;;;;;;9.75;4.57;;;;;;;-145.70;100.00;63560.63;5078529;28;20024;-59
2022/09/14 03:54:13;;;;;;;9.85;4.80;;;;;;;-145.70;100.00;63560.63;5083267;28;20031;-59
2022/09/14 03:56:39;;;;;;;7.03;4.10;;;;;;;-145.70;100.00;63560.63;5069673;28;21667;-59
2022/09/14 03:59:08;;;;;;;8.70;4.40;;;;;;;-145.70;100.00;63560.63;5080049;28;20040;-59
2022/09/14 04:01:33;;;;;;;7.10;4.33;;;;;;;-145.70;100.00;63560.63;5060483;28;20028;-60
2022/09/14 04:03:59;;;;;;;9.27;4.32;;;;;;;-145.70;100.00;63560.63;5082987;28;20107;-60
2022/09/14 04:06:25;;;;;;;7.28;3.88;;;;;;;-145.70;100.00;63560.63;5062548;28;20111;-59
2022/09/14 04:08:50;;;;;;;6.10;4.03;;;;;;;-145.70;100.00;63560.63;5055822;28;20028;-60
2022/09/14 04:11:21;;;;;;;9.07;3.80;;;;;;;-145.70;100.00;63560.63;5043194;28;20036;-61
2022/09/14 04:13:47;;;;;;;6.10;3.22;;;;;;;-145.70;100.00;63560.63;5067827;28;20086;-59
2022/09/14 04:16:13;;;;;;;7.20;3.50;;;;;;;-145.70;100.00;63560.63;5068077;28;20613;-63
2022/09/14 04:18:39;;;;;;;8.68;3.22;;;;;;;-145.70;100.00;63560.63;5071841;28;20032;-59
2022/09/14 04:21:11;;;;;;;5.95;3.17;;;;;;;-145.70;100.00;63560.63;5045294;28;21047;-59
2022/09/14 04:23:37;;;;;;;6.80;3.22;;;;;;;-145.70;100.00;63560.63;5055718;28;20025;-60
2022/09/14 04:26:11;;;;;;;8.00;3.03;;;;;;;-145.70;100.00;63560.63;5049515;28;20521;-59
2022/09/14 04:28:36;;;;;;;6.60;3.22;;;;;;;-145.70;100.00;63560.63;5051284;28;20485;-60
2022/09/14 04:31:02;;;;;;;5.47;3.22;;;;;;;-145.70;100.00;63560.63;5050863;28;20024;-61
2022/09/14 04:33:32;;;;;;;6.30;3.30;;;;;;;-145.70;100.00;63560.63;5067668;28;20028;-61
2022/09/14 04:36:07;;;;;;;8.05;3.50;;;;;;;-145.70;100.00;63560.63;5062521;28;20102;-59
2022/09/14 04:38:33;;;;;;;8.40;3.58;;;;;;;-145.70;100.00;63560.63;5067117;28;20032;-59
2022/09/14 04:40:58;;;;;;;6.35;3.60;;;;;;;-145.70;100.00;63560.63;5061723;28;20477;-59
2022/09/14 04:43:25;;;;;;;6.63;3.58;;;;;;;-145.70;100.00;63560.63;5058371;28;20036;-60
2022/09/14 04:45:51;;;;;;;7.93;3.38;;;;;;;-145.70;100.00;63560.63;5064129;28;20111;-60
2022/09/14 04:48:16;;;;;;;8.57;3.53;;;;;;;-145.70;100.00;63560.63;5060713;28;20071;-59
2022/09/14 04:50:42;;;;;;;6.10;3.25;;;;;;;-145.70;100.00;63560.63;5051620;28;20457;-60
2022/09/14 04:53:08;;;;;;;8.50;3.10;;;;;;;-145.70;100.00;63560.63;5065767;28;20635;-60
2022/09/14 04:55:34;;;;;;;6.57;3.30;;;;;;;-145.70;100.00;63560.63;5047159;28;20028;-60
2022/09/14 04:58:00;;;;;;;7.80;3.40;;;;;;;-145.70;100.00;63560.63;5049676;28;20384;-59
2022/09/14 05:00:25;;;;;;;7.53;3.67;;;;;;;-145.70;100.00;63560.63;5051983;28;20102;-61
2022/09/14 05:02:51;;;;;;;7.45;3.22;;;;;;;-145.70;100.00;63560.63;5051279;28;20028;-59
2022/09/14 05:05:16;;;;;;;5.97;3.58;;;;;;;-145.70;100.00;63560.63;5064327;28;20101;-60
2022/09/14 05:07:41;;;;;;;6.95;2.70;;;;;;;-145.70;100.00;63560.63;5053192;28;20035;-59
2022/09/14 05:10:07;;;;;;;7.18;3.40;;;;;;;-145.70;100.00;63560.63;5064908;28;20040;-60
2022/09/14 05:12:33;;;;;;;6.18;3.45;;;;;;;-145.70;100.00;63560.63;5061946;28;20024;-59
2022/09/14 05:14:58;;;;;;;6.82;3.30;;;;;;;-145.70;100.00;63560.63;5069615;28;20067;-60
2022/09/14 05:17:23;;;;;;;7.82;3.60;;;;;;;-145.70;100.00;63560.63;5059794;28;20047;-59
2022/09/14 05:19:49;;;;;;;7.80;3.60;;;;;;;-145.70;100.00;63560.63;5074567;27;20871;-63
2022/09/14 05:22:15;;;;;;;6.53;3.17;;;;;;;-145.70;100.00;63560.63;5054855;28;20123;-59
2022/09/14 05:24:40;;;;;;;6.88;3.30;;;;;;;-145.70;100.00;63560.63;5052684;28;20107;-61
2022/09/14 05:27:06;;;;;;;9.60;3.13;;;;;;;-145.70;100.00;63560.63;5060934;28;20462;-59
2022/09/14 05:29:31;;;;;;;6.88;3.15;;;;;;;-145.70;100.00;63560.63;5062792;28;20186;-60
2022/09/14 05:31:57;;;;;;;8.35;3.33;;;;;;;-145.70;100.00;63560.63;5066507;28;20095;-62
2022/09/14 05:34:22;;;;;;;11.88;3.83;;;;;;;-145.70;100.00;63560.63;5059741;28;20059;-59
2022/09/14 05:36:48;;;;;;;8.05;3.08;;;;;;;-145.70;100.00;63560.63;5061936;28;20547;-62
2022/09/14 05:39:13;;;;;;;7.70;3.30;;;;;;;-145.70;100.00;63560.63;5057316;28;20032;-59
2022/09/14 05:41:39;;;;;;;6.65;3.03;;;;;;;-145.70;100.00;63560.63;5074663;28;20034;-60
2022/09/14 05:44:05;;;;;;;8.30;3.10;;;;;;;-145.70;100.00;63560.63;5056794;28;20737;-58
2022/09/14 05:46:30;;;;;;;8.15;3.13;;;;;;;-145.70;100.00;63560.63;5084968;28;20636;-59
2022/09/14 05:48:56;;;;;;;7.97;3.72;;;;;;;-145.70;100.00;63560.63;5057282;28;20035;-59
2022/09/14 05:51:24;;;;;;;10.05;3.00;;;;;;;-145.70;100.00;63560.63;5060180;28;20033;-59
2022/09/14 05:53:53;;;;;;;8.02;3.50;;;;;;;-145.70;100.00;63560.63;5070866;28;20085;-59
2022/09/14 05:56:20;;;;;;;5.97;2.75;;;;;;;-145.70;100.00;63560.63;5066923;28;20044;-61
2022/09/14 05:58:46;;;;;;;10.57;3.45;;;;;;;-145.70;100.00;63560.63;5077324;28;20044;-59
2022/09/14 06:01:32;;;;;;;10.05;3.33;;;;;;;-145.70;100.00;63560.63;5058256;28;20060;-61
2022/09/14 06:04:00;;;;;;;13.32;3.20;;;;;;;-145.70;100.00;63560.63;5073153;28;20526;-59
2022/09/14 06:06:26;;;;;;;10.95;3.22;;;;;;;-145.70;100.00;63560.63;5081828;28;20517;-60
2022/09/14 06:08:53;;;;;;;8.88;3.28;;;;;;;-145.70;100.00;63560.63;5063051;28;20020;-58
2022/09/14 06:11:21;;;;;;;9.05;3.38;;;;;;;-145.70;100.00;63560.63;5055827;28;20411;-59
2022/09/14 06:13:47;;;;;;;6.85;3.40;;;;;;;-145.70;100.00;63560.63;5077021;28;20024;-60
2022/09/14 06:16:14;;;;;;;7.65;3.35;;;;;;;-145.70;100.00;63560.63;5073486;28;20042;-59
2022/09/14 06:18:41;;;;;;;6.40;3.40;;;;;;;-145.70;100.00;63560.63;5073854;28;20081;-60
2022/09/14 06:21:07;;;;;;;6.18;3.47;;;;;;;-145.70;100.00;63560.63;5060243;28;20059;-61
2022/09/14 06:23:33;;;;;;;6.85;3.47;;;;;;;-145.70;100.00;63560.63;5102409;27;20029;-59
2022/09/14 06:26:00;;;;;;;9.23;4.10;;;;;;;-145.70;100.00;63560.63;5053843;28;20029;-60
2022/09/14 06:28:27;;;;;;;7.63;3.67;;;;;;;-145.70;100.00;63560.63;5071406;28;20020;-61
2022/09/14 06:30:52;;;;;;;8.38;3.75;;;;;;;-145.70;100.00;63560.63;5104681;27;20032;-59
2022/09/14 06:33:18;;;;;;;8.40;3.70;;;;;;;-145.70;100.00;63560.63;5047965;28;20510;-59
2022/09/14 06:36:11;;;;;;;6.85;3.53;;;;;;;-145.70;100.00;63560.63;5059286;28;20056;-60
2022/09/14 06:38:37;;;;;;;6.32;3.20;;;;;;;-145.70;100.00;63560.63;5066989;28;20387;-61
2022/09/14 06:41:05;;;;;;;6.05;3.35;;;;;;;-145.70;100.00;63560.63;5074688;28;20081;-60
2022/09/14 06:43:33;;;;;;;6.00;3.13;;;;;;;-145.70;100.00;63560.63;5083710;28;20035;-60
2022/09/14 06:46:07;;;;;;;6.43;3.22;;;;;;;-145.70;100.00;63560.63;5094634;27;20101;-59
2022/09/14 06:48:38;;;;;;;6.82;3.20;;;;;;;-145.70;100.00;63560.63;5084230;28;20023;-60
2022/09/14 06:51:31;;;;;;;6.45;3.55;;;;;;;-145.70;100.00;63560.63;5076745;28;20078;-59
2022/09/14 06:54:00;;;;;;;6.13;3.53;;;;;;;-145.70;100.00;63560.63;5084058;28;20040;-60
2022/09/14 06:56:27;;;;;;;6.10;3.60;;;;;;;-145.70;100.00;63560.63;5076220;28;20085;-60
2022/09/14 06:58:53;;;;;;;8.50;3.50;;;;;;;-145.70;100.00;63560.63;5064972;28;20027;-60
2022/09/14 07:01:19;;;;;;;8.05;3.63;;;;;;;-145.70;100.00;63560.63;5061112;28;20020;-59
2022/09/14 07:03:45;;;;;;;6.70;3.78;;;;;;;-145.70;100.00;63560.63;5079369;28;20073;-59
2022/09/14 07:06:22;;;;;;;6.18;3.38;;;;;;;-145.70;100.00;63560.63;5075949;28;20032;-59
2022/09/14 07:08:49;;;;;;;5.97;3.17;;;;;;;-145.70;100.00;63560.63;5067293;28;20028;-59
2022/09/14 07:11:16;;;;;;;8.52;3.72;;;;;;;-145.70;100.00;63560.63;5074779;28;20060;-59
2022/09/14 07:13:42;;;;;;;6.82;3.55;;;;;;;-145.70;100.00;63560.63;5058308;28;20028;-59
2022/09/14 07:16:07;;;;;;;9.07;3.90;;;;;;;-145.70;100.00;63560.63;5061917;28;20031;-59
2022/09/14 07:18:34;;;;;;;8.13;3.95;;;;;;;-145.70;100.00;63560.63;5071087;28;20368;-60
2022/09/14 07:21:14;;;;;;;7.82;3.70;;;;;;;-145.70;100.00;63560.63;5114426;27;20039;-60
2022/09/14 07:23:41;;;;;;;8.15;3.70;;;;;;;-145.70;100.00;63560.63;5071530;28;20032;-60
2022/09/14 07:26:12;;;;;;;8.60;3.72;;;;;;;-145.70;100.00;63560.63;5078234;28;20055;-59
2022/09/14 07:28:38;;;;;;;10.60;4.18;;;;;;;-145.70;100.00;63560.63;5065537;28;20828;-60
2022/09/14 07:31:05;;;;;;;6.93;3.42;;;;;;;-145.70;100.00;63560.63;5101975;27;20199;-60
2022/09/14 07:33:31;;;;;;;13.43;4.00;;;;;;;-145.70;100.00;63560.63;5078494;28;20052;-59
2022/09/14 07:36:07;;;;;;;8.98;3.60;;;;;;;-145.70;100.00;63560.63;5055461;28;20039;-59
2022/09/14 07:38:32;;;;;;;8.88;3.80;;;;;;;-145.70;100.00;63560.63;5062321;28;20097;-59
2022/09/14 07:40:58;;;;;;;7.97;3.78;;;;;;;-145.70;100.00;63560.63;5067293;28;20529;-60
2022/09/14 07:43:23;;;;;;;7.68;4.22;;;;;;;-145.70;100.00;63560.63;5059728;28;20700;-59
2022/09/14 07:45:48;;;;;;;7.03;4.10;;;;;;;-145.70;100.00;63560.63;5061647;28;20020;-60
2022/09/14 07:48:14;;;;;;;9.75;3.97;;;;;;;-145.70;100.00;63560.63;5085539;28;20029;-61
2022/09/14 07:50:40;;;;;;;8.27;3.88;;;;;;;-145.70;100.00;63560.63;5061034;28;20157;-59
2022/09/14 07:53:05;;;;;;;8.05;3.80;;;;;;;-145.70;100.00;63560.63;5068023;28;20580;-59
2022/09/14 07:55:31;;;;;;;7.97;3.70;;;;;;;-145.70;100.00;63560.63;5081784;28;20393;-60
2022/09/14 07:57:57;;;;;;;7.65;3.92;;;;;;;-145.70;100.00;63560.63;5068964;28;20052;-59
2022/09/14 08:00:23;;;;;;;7.70;3.65;;;;;;;-145.70;100.00;63560.63;5074216;28;20028;-60
2022/09/14 08:02:52;;;;;;;7.63;3.40;;;;;;;-145.70;100.00;63560.63;5065667;28;20036;-59
2022/09/14 08:05:18;;;;;;;6.53;3.50;;;;;;;-145.70;100.00;63560.63;5076301;28;20078;-61
2022/09/14 08:07:44;;;;;;;6.50;3.63;;;;;;;-145.70;100.00;63560.63;5066165;28;20033;-59
2022/09/14 08:10:09;;;;;;;6.63;3.47;;;;;;;-145.70;100.00;63560.63;5082666;28;20031;-60
2022/09/14 08:12:35;;;;;;;8.18;3.60;;;;;;;-145.70;100.00;63560.63;5085229;28;20035;-59
2022/09/14 08:15:00;;;;;;;6.22;3.55;;;;;;;-145.70;100.00;63560.63;5055922;28;20024;-59
2022/09/14 08:17:26;;;;;;;7.82;3.80;;;;;;;-145.70;100.00;63560.63;5076980;28;20029;-59
2022/09/14 08:19:51;;;;;;;6.65;3.40;;;;;;;-145.70;100.00;63560.63;5073353;28;20491;-59
2022/09/14 08:22:17;;;;;;;8.95;3.63;;;;;;;-145.70;100.00;63560.63;5102939;27;20056;-59
2022/09/14 08:24:42;;;;;;;7.80;3.30;;;;;;;-145.70;100.00;63560.63;5071959;28;20105;-59
2022/09/14 08:27:09;;;;;;;8.95;3.63;;;;;;;-145.70;100.00;63560.63;5067406;28;20047;-60
2022/09/14 08:29:35;;;;;;;6.25;3.30;;;;;;;-145.70;100.00;63560.63;5080200;28;20024;-60
2022/09/14 08:32:00;;;;;;;9.68;3.58;;;;;;;-145.70;100.00;63560.63;5072479;28;20520;-60
2022/09/14 08:34:26;;;;;;;5.88;3.40;;;;;;;-145.70;100.00;63560.63;5079415;28;20102;-59
2022/09/14 08:36:51;;;;;;;7.40;3.50;;;;;;;-145.70;100.00;63560.63;5059588;28;20441;-57
2022/09/14 08:39:17;;;;;;;6.50;3.72;;;;;;;-145.70;100.00;63560.63;5081838;28;20023;-60
2022/09/14 08:41:50;;;;;;;8.43;3.63;;;;;;;-145.70;100.00;63560.63;5069032;28;20040;-60
2022/09/14 08:44:27;;;;;;;7.60;3.67;;;;;;;-145.70;100.00;63560.63;5065792;27;20036;-59
2022/09/14 08:47:05;;;;;;;7.68;3.97;;;;;;;-145.70;100.00;63560.63;5067782;28;20028;-59
2022/09/14 08:49:46;;;;;;;8.45;3.90;;;;;;;-145.70;100.00;63560.63;5073880;28;20028;-59
2022/09/14 08:52:25;;;;;;;8.00;4.30;;;;;;;-145.70;100.00;63560.63;5071506;28;20032;-58
2022/09/14 08:54:56;;;;;;;8.35;4.28;;;;;;;-145.70;100.00;63560.63;5068260;28;20031;-59
2022/09/14 08:57:53;;;;;;;7.35;4.03;;;;;;;-145.70;100.00;63560.63;5068349;28;20027;-59
2022/09/14 09:00:24;;;;;;;8.95;4.40;;;;;;;-145.70;100.00;63560.63;5062768;28;20117;-59
2022/09/14 09:03:12;;;;;;;7.65;4.80;;;;;;;-145.70;100.00;63560.63;5074973;28;20052;-59
2022/09/14 09:06:05;;;;;;;6.35;4.20;;;;;;;-145.70;100.00;63560.63;5076879;28;20031;-60
2022/09/14 09:08:43;;;;;;;7.63;4.28;;;;;;;-145.70;100.00;63560.63;5071524;28;20118;-59
2022/09/14 09:11:14;;;;;;;7.22;4.30;;;;;;;-145.70;100.00;63560.63;5066031;28;20109;-60
2022/09/14 09:13:40;;;;;;;9.25;4.32;;;;;;;-145.70;100.00;63560.63;5060730;28;20780;-60
2022/09/14 09:16:08;;;;;;;8.73;4.68;;;;;;;-145.70;100.00;63560.63;5062096;28;20048;-60
2022/09/14 09:18:45;;;;;;;8.38;4.38;;;;;;;-145.70;100.00;63560.63;5064450;28;20039;-61
2022/09/14 09:21:16;;;;;;;9.02;4.32;;;;;;;-145.70;100.00;63560.63;5065171;28;20039;-59
2022/09/14 09:23:42;;;;;;;6.07;3.80;;;;;;;-145.70;100.00;63560.63;5056601;28;20043;-59
2022/09/14 09:26:28;;;;;;;9.27;4.22;;;;;;;-145.70;100.00;63560.63;5078293;28;20040;-59
2022/09/14 09:28:56;;;;;;;10.50;5.32;;;;;;;-145.70;100.00;63560.63;5056307;28;20042;-59
2022/09/14 09:31:30;;;;;;;7.88;4.10;;;;;;;-145.70;100.00;63560.63;5070654;28;20024;-59
2022/09/14 09:33:56;;;;;;;8.57;4.82;;;;;;;-145.70;100.00;63560.63;5060372;28;20526;-59
2022/09/14 09:36:21;;;;;;;8.18;4.32;;;;;;;-145.70;100.00;63560.63;5062330;28;20024;-59
2022/09/14 09:38:47;;;;;;;9.05;4.18;;;;;;;-145.70;100.00;63560.63;5068196;28;20792;-59
2022/09/14 09:41:22;;;;;;;5.90;4.10;;;;;;;-145.70;100.00;63560.63;5052591;28;20537;-59
2022/09/14 09:44:11;;;;;;;8.93;4.10;;;;;;;-145.70;100.00;63560.63;5076275;28;20032;-58
2022/09/14 09:46:38;;;;;;;8.80;4.18;;;;;;;-145.70;100.00;63560.63;5061399;28;20024;-60
2022/09/14 09:49:21;;;;;;;7.45;4.25;;;;;;;-145.70;100.00;63560.63;5042039;28;20138;-58
2022/09/14 09:51:48;;;;;;;8.48;4.15;;;;;;;-145.70;100.00;63560.63;5052777;28;20819;-58
2022/09/14 09:54:14;;;;;;;8.35;4.53;;;;;;;-145.70;100.00;63560.63;5067328;28;20027;-59
2022/09/14 09:56:51;;;;;;;8.38;4.32;;;;;;;-145.70;100.00;63560.63;5072846;28;20109;-59
2022/09/14 09:59:39;;;;;;;7.40;3.92;;;;;;;-145.70;100.00;63560.63;5067517;28;20024;-58
2022/09/14 10:02:30;;;;;;;7.90;3.60;;;;;;;-145.70;100.00;63560.63;5068114;28;20032;-59
2022/09/14 10:05:00;;;;;;;8.60;4.47;;;;;;;-145.70;100.00;63560.63;5053110;28;20036;-59
2022/09/14 10:07:27;;;;;;;8.82;4.22;;;;;;;-145.70;100.00;63560.63;5073048;28;20394;-60
2022/09/14 10:10:12;;;;;;;7.95;3.70;;;;;;;-145.70;100.00;63560.63;5069089;28;20032;-59
2022/09/14 10:12:45;;;;;;;8.20;3.50;;;;;;;-145.70;100.00;63560.63;5071538;28;20611;-59
2022/09/14 10:15:24;;;;;;;8.75;3.70;;;;;;;-145.70;100.00;63560.63;5072564;28;20538;-59
2022/09/14 10:18:11;;;;;;;6.60;3.35;;;;;;;-145.70;100.00;63560.63;5065714;28;20055;-60
2022/09/14 10:20:42;;;;;;;5.40;3.10;;;;;;;-145.70;100.00;63560.63;5072763;28;20514;-59
2022/09/14 10:23:14;;;;;;;6.18;3.55;;;;;;;-145.70;100.00;63560.63;5058419;28;20060;-60
2022/09/14 10:25:39;;;;;;;7.35;3.30;;;;;;;-145.70;100.00;63560.63;5073508;28;20024;-59
2022/09/14 10:28:19;;;;;;;6.82;3.33;;;;;;;-145.70;100.00;63560.63;5069545;28;20169;-58
2022/09/14 10:30:49;;;;;;;8.43;3.10;;;;;;;-145.70;100.00;63560.63;5074785;28;20111;-59
2022/09/14 10:33:17;;;;;;;7.53;3.28;;;;;;;-145.70;100.00;63560.63;5068664;28;20039;-59
2022/09/14 10:35:48;;;;;;;7.82;3.47;;;;;;;-145.70;100.00;63560.63;5084225;28;20032;-59
2022/09/14 10:38:16;;;;;;;7.50;3.58;;;;;;;-145.70;100.00;63560.63;5071752;28;20135;-60
2022/09/14 10:40:45;;;;;;;6.28;3.03;;;;;;;-145.70;100.00;63560.63;5073882;28;20029;-59
2022/09/14 10:43:17;;;;;;;6.45;2.90;;;;;;;-145.70;100.00;63560.63;5069994;28;20039;-62
2022/09/14 10:45:51;;;;;;;7.20;3.10;;;;;;;-145.70;100.00;63560.63;5066960;28;20059;-59
2022/09/14 10:48:42;;;;;;;6.68;3.53;;;;;;;-145.70;100.00;63560.63;5059213;28;20032;-59
2022/09/14 10:51:36;;;;;;;7.05;2.90;;;;;;;-145.70;100.00;63560.63;5072782;28;20071;-59
2022/09/14 10:54:35;;;;;;;6.55;3.10;;;;;;;-145.70;100.00;63560.63;5042155;28;20028;-59
2022/09/14 10:57:14;;;;;;;7.40;3.13;;;;;;;-145.70;100.00;63560.63;5053840;28;20032;-59
2022/09/14 10:59:53;;;;;;;6.13;2.85;;;;;;;-145.70;100.00;63560.63;5069938;28;20265;-59
2022/09/14 11:02:31;;;;;;;5.97;3.08;;;;;;;-145.70;100.00;63560.63;5066744;28;20017;-59
2022/09/14 11:05:07;;;;;;;6.95;3.17;;;;;;;-145.70;100.00;63560.63;5067720;28;20064;-59
2022/09/14 11:08:04;;;;;;;5.43;3.15;;;;;;;-145.70;100.00;63560.63;5053879;28;20031;-59
2022/09/14 11:10:37;;;;;;;6.55;3.03;;;;;;;-145.70;100.00;63560.63;5055205;28;20020;-59
2022/09/14 11:13:28;;;;;;;4.97;2.97;;;;;;;-145.70;100.00;63560.63;5063494;28;20035;-61
2022/09/14 11:16:22;;;;;;;5.82;3.30;;;;;;;-145.70;100.00;63560.63;5048270;28;20056;-59
2022/09/14 11:19:02;;;;;;;6.68;3.08;;;;;;;-145.70;100.00;63560.63;5069317;28;20040;-59
2022/09/14 11:21:51;;;;;;;8.02;3.13;;;;;;;-145.70;100.00;63560.63;5067632;28;20024;-62
2022/09/14 11:24:19;;;;;;;6.90;3.17;;;;;;;-145.70;100.00;63560.63;5068228;28;20470;-60